createdAt,value
2018-04-16T00:01:02.800Z,15.28
2018-04-16T00:04:06.110Z,15.28
2018-04-16T00:07:10.399Z,15.30
2018-04-16T00:10:13.799Z,15.28
2018-04-16T00:13:17.020Z,15.27
2018-04-16T00:16:20.293Z,15.24
2018-04-16T00:19:23.579Z,15.22
2018-04-16T00:22:26.807Z,15.15
2018-04-16T00:25:29.984Z,15.19
2018-04-16T00:28:33.276Z,15.19
2018-04-16T00:31:40.843Z,15.20
2018-04-16T00:35:48.553Z,15.11
2018-04-16T00:38:56.976Z,15.16
2018-04-16T00:43:07.399Z,15.14
2018-04-16T00:47:16.674Z,15.10
2018-04-16T00:51:29.109Z,15.12
2018-04-16T00:55:35.391Z,15.17
2018-04-16T00:59:45.627Z,15.23
2018-04-16T01:03:54.278Z,15.28
2018-04-16T01:08:00.554Z,15.11
2018-04-16T01:12:07.760Z,15.11
2018-04-16T01:16:14.078Z,15.12
2018-04-16T01:20:20.361Z,15.12
2018-04-16T01:24:26.623Z,15.12
2018-04-16T01:27:35.163Z,15.12
2018-04-16T01:31:44.469Z,15.04
2018-04-16T01:35:53.837Z,15.04
2018-04-16T01:40:02.363Z,15.03
2018-04-16T01:44:09.733Z,15.00
2018-04-16T01:48:16.229Z,15.03
2018-04-16T01:52:23.597Z,15.07
2018-04-16T01:56:33.018Z,15.09
2018-04-16T01:59:41.755Z,15.10
2018-04-16T02:02:50.453Z,15.09
2018-04-16T02:07:01.807Z,15.12
2018-04-16T02:11:12.221Z,15.00
2018-04-16T02:15:19.373Z,15.03
2018-04-16T02:18:27.903Z,15.04
2018-04-16T02:21:36.641Z,15.08
2018-04-16T02:25:44.249Z,15.12
2018-04-16T02:29:52.552Z,15.16
2018-04-16T02:33:58.919Z,15.17
2018-04-16T02:38:08.238Z,15.17
2018-04-16T02:41:16.925Z,15.09
2018-04-16T02:45:23.553Z,15.05
2018-04-16T02:48:32.221Z,15.03
2018-04-16T02:52:45.032Z,15.02
2018-04-16T02:56:55.290Z,15.00
2018-04-16T03:01:01.461Z,14.99
2018-04-16T03:04:09.980Z,14.94
2018-04-16T03:08:22.710Z,14.94
2018-04-16T03:12:31.427Z,14.87
2018-04-16T03:16:37.845Z,14.88
2018-04-16T03:20:44.442Z,14.92
2018-04-16T03:24:50.783Z,14.92
2018-04-16T03:28:57.280Z,14.88
2018-04-16T03:32:05.989Z,14.85
2018-04-16T03:36:16.638Z,14.83
2018-04-16T03:40:24.976Z,14.86
2018-04-16T03:44:32.516Z,14.80
2018-04-16T03:48:42.844Z,14.83
2018-04-16T03:51:46.340Z,14.83
2018-04-16T03:54:49.720Z,14.76
2018-04-16T03:57:53.080Z,14.79
2018-04-16T04:00:56.543Z,14.71
2018-04-16T04:03:59.751Z,14.65
2018-04-16T04:07:03.060Z,14.57
2018-04-16T04:10:06.364Z,14.51
2018-04-16T04:13:09.670Z,14.51
2018-04-16T04:16:12.954Z,14.51
2018-04-16T04:19:16.539Z,14.42
2018-04-16T04:22:20.891Z,14.42
2018-04-16T04:26:38.477Z,14.40
2018-04-16T04:30:31.266Z,14.41
2018-04-16T04:33:34.582Z,14.40
2018-04-16T04:36:37.844Z,14.39
2018-04-16T04:39:41.035Z,14.37
2018-04-16T04:42:44.366Z,14.32
2018-04-16T04:45:47.560Z,14.39
2018-04-16T04:48:50.933Z,14.32
2018-04-16T04:51:54.209Z,14.26
2018-04-16T04:54:57.615Z,14.23
2018-04-16T04:58:00.916Z,14.13
2018-04-16T05:01:04.219Z,13.97
2018-04-16T05:04:07.395Z,13.92
2018-04-16T05:07:10.727Z,13.81
2018-04-16T05:10:14.034Z,13.84
2018-04-16T05:13:17.330Z,13.83
2018-04-16T05:16:20.625Z,13.91
2018-04-16T05:19:23.909Z,13.91
2018-04-16T05:22:28.157Z,13.83
2018-04-16T05:25:31.429Z,13.75
2018-04-16T05:28:34.665Z,13.72
2018-04-16T05:31:37.925Z,13.69
2018-04-16T05:34:41.216Z,13.70
2018-04-16T05:37:44.526Z,13.70
2018-04-16T05:40:47.841Z,13.72
2018-04-16T05:43:51.112Z,13.74
2018-04-16T05:46:54.432Z,13.74
2018-04-16T05:49:58.760Z,13.76
2018-04-16T05:53:02.035Z,13.79
2018-04-16T05:56:05.363Z,13.81
2018-04-16T05:59:08.583Z,13.88
2018-04-16T06:02:11.824Z,13.95
2018-04-16T06:05:15.098Z,13.91
2018-04-16T06:08:18.300Z,14.04
2018-04-16T06:11:21.532Z,14.07
2018-04-16T06:14:24.826Z,14.17
2018-04-16T06:17:28.224Z,14.25
2018-04-16T06:20:31.469Z,14.30
2018-04-16T06:23:34.732Z,14.35
2018-04-16T06:26:38.019Z,14.44
2018-04-16T06:29:41.289Z,14.44
2018-04-16T06:32:44.609Z,14.50
2018-04-16T06:35:47.945Z,14.54
2018-04-16T06:38:51.506Z,14.58
2018-04-16T06:41:54.798Z,14.54
2018-04-16T06:44:58.145Z,14.68
2018-04-16T06:48:01.380Z,14.71
2018-04-16T06:51:04.639Z,14.81
2018-04-16T06:54:07.876Z,14.79
2018-04-16T06:57:11.155Z,14.89
2018-04-16T07:00:14.498Z,15.01
2018-04-16T07:03:17.773Z,15.10
2018-04-16T07:06:21.079Z,15.27
2018-04-16T07:09:24.310Z,15.41
2018-04-16T07:12:27.648Z,15.57
2018-04-16T07:15:30.920Z,15.71
2018-04-16T07:18:34.064Z,15.76
2018-04-16T07:21:37.356Z,15.92
2018-04-16T07:24:40.552Z,16.04
2018-04-16T07:27:43.819Z,15.93
2018-04-16T07:30:47.020Z,16.17
2018-04-16T07:33:50.239Z,16.33
2018-04-16T07:36:53.500Z,16.42
2018-04-16T07:39:57.773Z,16.63
2018-04-16T07:43:01.068Z,16.66
2018-04-16T07:46:04.350Z,16.76
2018-04-16T07:49:07.561Z,16.88
2018-04-16T07:52:10.857Z,16.79
2018-04-16T07:55:14.155Z,16.98
2018-04-16T07:58:17.417Z,17.01
2018-04-16T08:01:20.628Z,17.03
2018-04-16T08:04:23.916Z,17.32
2018-04-16T08:07:28.124Z,17.52
2018-04-16T08:10:31.352Z,17.52
2018-04-16T08:13:34.551Z,17.70
2018-04-16T08:16:37.840Z,17.65
2018-04-16T08:19:41.120Z,17.64
2018-04-16T08:22:44.450Z,17.81
2018-04-16T08:25:47.730Z,17.86
2018-04-16T08:28:51.032Z,17.82
2018-04-16T08:31:54.433Z,18.01
2018-04-16T08:34:58.946Z,18.02
2018-04-16T08:38:02.245Z,17.77
2018-04-16T08:41:05.567Z,18.14
2018-04-16T08:44:08.859Z,18.11
2018-04-16T08:47:12.185Z,17.90
2018-04-16T08:50:15.439Z,18.10
2018-04-16T08:53:18.749Z,18.53
2018-04-16T08:56:22.030Z,18.74
2018-04-16T08:59:26.017Z,18.84
2018-04-16T09:02:29.244Z,19.10
2018-04-16T09:05:32.534Z,18.85
2018-04-16T09:08:35.868Z,18.92
2018-04-16T09:11:38.993Z,18.95
2018-04-16T09:14:42.128Z,18.82
2018-04-16T09:17:45.324Z,19.04
2018-04-16T09:20:48.751Z,19.07
2018-04-16T09:23:52.060Z,19.17
2018-04-16T09:26:55.187Z,19.17
2018-04-16T09:29:59.512Z,19.17
2018-04-16T09:33:02.787Z,19.43
2018-04-16T09:36:06.127Z,19.25
2018-04-16T09:39:09.579Z,19.73
2018-04-16T09:42:12.904Z,20.03
2018-04-16T09:45:16.099Z,20.16
2018-04-16T09:48:19.424Z,19.76
2018-04-16T09:51:22.706Z,20.05
2018-04-16T09:54:27.115Z,20.29
2018-04-16T09:57:30.320Z,20.49
2018-04-16T10:00:37.797Z,20.51
2018-04-16T10:03:41.302Z,20.30
2018-04-16T10:06:44.635Z,20.30
2018-04-16T10:09:47.840Z,20.16
2018-04-16T10:12:51.065Z,20.56
2018-04-16T10:15:54.314Z,20.57
2018-04-16T10:18:57.744Z,20.42
2018-04-16T10:22:01.191Z,20.21
2018-04-16T10:25:04.523Z,20.19
2018-04-16T10:28:07.828Z,20.14
2018-04-16T10:31:11.119Z,20.32
2018-04-16T10:34:14.463Z,20.25
2018-04-16T10:37:17.816Z,20.31
2018-04-16T10:40:21.108Z,20.44
2018-04-16T10:43:24.354Z,20.84
2018-04-16T10:46:28.734Z,21.17
2018-04-16T10:49:32.004Z,21.23
2018-04-16T10:52:35.219Z,20.97
2018-04-16T10:55:38.457Z,20.72
2018-04-16T10:58:41.691Z,21.00
2018-04-16T11:01:45.005Z,21.10
2018-04-16T11:04:48.308Z,21.35
2018-04-16T11:07:51.546Z,21.30
2018-04-16T11:10:54.812Z,21.34
2018-04-16T11:13:59.261Z,21.46
2018-04-16T11:17:02.489Z,21.53
2018-04-16T11:20:05.789Z,21.56
2018-04-16T11:23:09.031Z,21.51
2018-04-16T11:26:12.277Z,21.39
2018-04-16T11:29:15.478Z,21.28
2018-04-16T11:32:18.731Z,21.12
2018-04-16T11:35:22.024Z,21.07
2018-04-16T11:38:25.238Z,20.96
2018-04-16T11:41:28.790Z,21.15
2018-04-16T11:44:32.356Z,21.17
2018-04-16T11:47:36.043Z,21.32
2018-04-16T11:50:39.239Z,21.54
2018-04-16T11:53:42.493Z,21.44
2018-04-16T11:56:45.772Z,21.28
2018-04-16T11:59:48.977Z,21.29
2018-04-16T12:02:52.267Z,21.39
2018-04-16T12:05:56.481Z,21.45
2018-04-16T12:08:59.700Z,21.39
2018-04-16T12:12:02.935Z,21.59
2018-04-16T12:15:06.137Z,21.87
2018-04-16T12:18:09.301Z,22.01
2018-04-16T12:21:13.535Z,21.98
2018-04-16T12:24:16.797Z,21.94
2018-04-16T12:27:20.112Z,22.15
2018-04-16T12:30:23.353Z,22.39
2018-04-16T12:33:27.111Z,22.50
2018-04-16T12:36:30.446Z,22.71
2018-04-16T12:39:33.693Z,22.25
2018-04-16T12:42:37.020Z,21.88
2018-04-16T12:45:40.296Z,21.80
2018-04-16T12:48:43.533Z,21.59
2018-04-16T12:51:46.796Z,21.44
2018-04-16T12:54:50.060Z,21.38
2018-04-16T12:57:53.371Z,21.35
2018-04-16T13:00:56.622Z,21.22
2018-04-16T13:03:59.771Z,21.26
2018-04-16T13:07:02.985Z,21.27
2018-04-16T13:10:06.269Z,21.21
2018-04-16T13:13:09.409Z,21.34
2018-04-16T13:16:12.564Z,21.18
2018-04-16T13:19:15.964Z,21.61
2018-04-16T13:22:19.257Z,22.07
2018-04-16T13:25:22.522Z,22.04
2018-04-16T13:28:26.328Z,22.17
2018-04-16T13:31:29.563Z,22.08
2018-04-16T13:34:32.873Z,22.42
2018-04-16T13:37:36.074Z,22.65
2018-04-16T13:40:39.570Z,22.86
2018-04-16T13:43:42.814Z,22.90
2018-04-16T13:46:46.080Z,22.96
2018-04-16T13:49:49.486Z,23.04
2018-04-16T13:52:52.668Z,22.89
2018-04-16T13:55:56.417Z,23.21
2018-04-16T13:58:59.587Z,23.22
2018-04-16T14:02:02.860Z,23.22
2018-04-16T14:05:06.139Z,23.09
2018-04-16T14:08:09.503Z,22.90
2018-04-16T14:11:12.681Z,22.95
2018-04-16T14:14:15.940Z,22.63
2018-04-16T14:17:19.248Z,22.73
2018-04-16T14:20:22.688Z,23.00
2018-04-16T14:23:26.418Z,23.13
2018-04-16T14:26:30.621Z,23.29
2018-04-16T14:29:33.881Z,23.62
2018-04-16T14:32:37.314Z,23.48
2018-04-16T14:35:40.546Z,23.69
2018-04-16T14:38:43.904Z,23.79
2018-04-16T14:41:47.230Z,23.78
2018-04-16T14:44:50.506Z,23.72
2018-04-16T14:47:53.835Z,23.62
2018-04-16T14:50:57.809Z,23.67
2018-04-16T14:54:01.040Z,23.41
2018-04-16T14:57:04.343Z,23.77
2018-04-16T15:00:07.669Z,23.63
2018-04-16T15:03:11.081Z,23.93
2018-04-16T15:06:14.358Z,23.99
2018-04-16T15:09:17.667Z,23.85
2018-04-16T15:12:20.934Z,23.27
2018-04-16T15:15:25.166Z,23.10
2018-04-16T15:18:28.586Z,22.94
2018-04-16T15:21:31.913Z,22.80
2018-04-16T15:24:35.149Z,22.74
2018-04-16T15:27:38.496Z,22.62
2018-04-16T15:30:41.754Z,22.98
2018-04-16T15:33:46.251Z,23.01
2018-04-16T15:36:49.585Z,22.96
2018-04-16T15:39:52.961Z,22.70
2018-04-16T15:42:57.122Z,22.94
2018-04-16T15:46:00.420Z,23.54
2018-04-16T15:49:03.732Z,23.62
2018-04-16T15:52:06.961Z,23.77
2018-04-16T15:55:10.212Z,23.95
2018-04-16T15:58:13.431Z,24.53
2018-04-16T16:01:16.585Z,24.25
2018-04-16T16:04:19.911Z,24.50
2018-04-16T16:07:23.033Z,24.16
2018-04-16T16:10:26.411Z,24.41
2018-04-16T16:13:29.608Z,24.44
2018-04-16T16:16:32.956Z,24.27
2018-04-16T16:19:36.156Z,24.11
2018-04-16T16:22:39.459Z,23.52
2018-04-16T16:25:42.685Z,22.96
2018-04-16T16:28:45.959Z,23.08
2018-04-16T16:31:49.264Z,23.07
2018-04-16T16:34:52.531Z,23.27
2018-04-16T16:37:56.067Z,23.55
2018-04-16T16:40:59.416Z,23.28
2018-04-16T16:44:02.716Z,23.36
2018-04-16T16:47:06.113Z,23.35
2018-04-16T16:50:09.525Z,23.48
2018-04-16T16:53:12.882Z,23.40
2018-04-16T16:56:16.235Z,23.38
2018-04-16T16:59:19.616Z,23.29
2018-04-16T17:02:22.961Z,22.64
2018-04-16T17:05:26.377Z,22.24
2018-04-16T17:08:29.729Z,22.04
2018-04-16T17:11:34.206Z,21.99
2018-04-16T17:14:37.581Z,22.03
2018-04-16T17:17:41.075Z,21.96
2018-04-16T17:20:44.251Z,22.06
2018-04-16T17:23:47.589Z,21.93
2018-04-16T17:26:50.876Z,21.76
2018-04-16T17:29:54.200Z,21.69
2018-04-16T17:32:57.536Z,21.61
2018-04-16T17:36:00.951Z,21.59
2018-04-16T17:39:05.599Z,21.58
2018-04-16T17:42:08.958Z,21.57
2018-04-16T17:45:12.341Z,21.56
2018-04-16T17:48:15.685Z,21.47
2018-04-16T17:51:18.884Z,21.39
2018-04-16T17:54:22.212Z,21.36
2018-04-16T17:57:25.557Z,21.27
2018-04-16T18:00:29.042Z,21.12
2018-04-16T18:03:32.489Z,21.02
2018-04-16T18:06:35.800Z,20.94
2018-04-16T18:09:39.089Z,20.87
2018-04-16T18:12:42.477Z,20.79
2018-04-16T18:15:45.832Z,20.69
2018-04-16T18:18:49.282Z,20.47
2018-04-16T18:21:52.512Z,20.43
2018-04-16T18:24:55.791Z,20.22
2018-04-16T18:27:59.128Z,20.12
2018-04-16T18:31:02.394Z,20.09
2018-04-16T18:34:05.762Z,19.95
2018-04-16T18:37:09.120Z,19.79
2018-04-16T18:40:12.393Z,19.65
2018-04-16T18:43:15.873Z,19.65
2018-04-16T18:46:19.203Z,19.54
2018-04-16T18:49:22.557Z,19.30
2018-04-16T18:52:26.052Z,19.15
2018-04-16T18:55:29.331Z,19.08
2018-04-16T18:58:32.483Z,18.98
2018-04-16T19:01:36.087Z,18.82
2018-04-16T19:04:39.331Z,18.82
2018-04-16T19:07:42.644Z,18.75
2018-04-16T19:10:45.883Z,18.75
2018-04-16T19:13:49.116Z,18.82
2018-04-16T19:16:52.421Z,18.86
2018-04-16T19:19:55.672Z,18.76
2018-04-16T19:22:59.591Z,18.78
2018-04-16T19:26:02.940Z,18.73
2018-04-16T19:29:06.183Z,18.69
2018-04-16T19:32:09.452Z,18.71
2018-04-16T19:35:12.712Z,18.57
2018-04-16T19:38:15.954Z,18.17
2018-04-16T19:41:19.311Z,18.07
2018-04-16T19:44:22.908Z,18.08
2018-04-16T19:47:26.193Z,18.14
2018-04-16T19:50:29.524Z,18.19
2018-04-16T19:53:32.820Z,18.13
2018-04-16T19:57:39.040Z,18.15
2018-04-16T20:00:42.388Z,18.17
2018-04-16T20:03:50.992Z,18.12
2018-04-16T20:06:54.284Z,18.13
2018-04-16T20:09:57.688Z,18.10
2018-04-16T20:13:01.063Z,18.03
2018-04-16T20:16:04.375Z,17.96
2018-04-16T20:19:07.759Z,17.97
2018-04-16T20:22:11.063Z,17.87
2018-04-16T20:25:14.333Z,17.84
2018-04-16T20:28:17.675Z,17.85
2018-04-16T20:31:21.049Z,17.90
2018-04-16T20:34:24.341Z,17.75
2018-04-16T20:37:27.898Z,17.68
2018-04-16T20:40:31.231Z,17.52
2018-04-16T20:43:34.552Z,17.41
2018-04-16T20:46:37.912Z,17.29
2018-04-16T20:49:41.253Z,17.28
2018-04-16T20:52:44.563Z,17.27
2018-04-16T20:55:47.759Z,17.35
2018-04-16T20:58:51.179Z,17.41
2018-04-16T21:01:57.368Z,17.37
2018-04-16T21:05:00.611Z,17.43
2018-04-16T21:08:04.030Z,17.44
2018-04-16T21:11:07.457Z,17.39
2018-04-16T21:14:10.800Z,17.34
2018-04-16T21:17:14.883Z,17.25
2018-04-16T21:20:18.319Z,17.06
2018-04-16T21:23:22.637Z,16.98
2018-04-16T21:26:25.932Z,17.01
2018-04-16T21:29:29.172Z,16.96
2018-04-16T21:32:32.634Z,16.82
2018-04-16T21:35:35.939Z,16.71
2018-04-16T21:38:39.572Z,16.53
2018-04-16T21:41:42.859Z,16.44
2018-04-16T21:44:46.058Z,16.38
2018-04-16T21:47:49.451Z,16.31
2018-04-16T21:50:52.735Z,16.31
2018-04-16T21:53:56.045Z,16.23
2018-04-16T21:56:59.435Z,16.10
2018-04-16T22:00:02.735Z,16.15
2018-04-16T22:03:06.142Z,16.00
2018-04-16T22:06:09.742Z,15.89
2018-04-16T22:09:13.119Z,15.76
2018-04-16T22:12:16.432Z,15.60
2018-04-16T22:15:19.751Z,15.44
2018-04-16T22:18:23.132Z,15.36
2018-04-16T22:21:26.570Z,15.19
2018-04-16T22:24:29.749Z,15.11
2018-04-16T22:27:33.132Z,15.02
2018-04-16T22:30:36.338Z,15.08
2018-04-16T22:33:39.602Z,15.21
2018-04-16T22:36:43.141Z,15.24
2018-04-16T22:39:46.296Z,15.30
2018-04-16T22:42:49.664Z,15.32
2018-04-16T22:45:53.134Z,15.37
2018-04-16T22:48:56.493Z,15.36
2018-04-16T22:51:59.940Z,15.30
2018-04-16T22:55:03.208Z,15.30
2018-04-16T22:58:06.545Z,15.28
2018-04-16T23:01:09.791Z,15.27
2018-04-16T23:04:12.975Z,15.15
2018-04-16T23:07:16.216Z,15.14
2018-04-16T23:10:19.505Z,15.05
2018-04-16T23:13:22.764Z,15.02
2018-04-16T23:16:26.091Z,14.91
2018-04-16T23:19:29.469Z,14.89
2018-04-16T23:22:32.679Z,14.66
2018-04-16T23:25:36.055Z,14.43
2018-04-16T23:28:39.309Z,14.34
2018-04-16T23:31:42.575Z,14.23
2018-04-16T23:34:45.968Z,14.10
2018-04-16T23:37:49.346Z,13.92
2018-04-16T23:40:52.587Z,13.72
2018-04-16T23:43:55.844Z,13.48
2018-04-16T23:47:00.025Z,13.43
2018-04-16T23:50:03.363Z,13.44
2018-04-16T23:53:06.613Z,13.45
2018-04-16T23:56:09.886Z,13.51
2018-04-16T23:59:13.200Z,13.61
